Ellijay, North Carolina
Current Conditions -  °F | °C
As of 9:35 AM on Wednesday 22 Oct 2014 (Local Time) from KRHP Reporting Station
Broken Clouds Broken Clouds  
Wind Chill: 48°   Ceiling: 3600
Heat Index: 48°   Visibility: 10mi
Dew Point: 39°   Wind: 3mph
Humidity: 70%   Direction: 110°ESE
Pressure: 30.15"   Gusts: NA
Location:  35.1737°N, 83.4215°W
Report Text: KRHP 221335Z AUTO 11003KT 10SM BKN036 09/04 A3015 RMK AO2 T00910039
Loading
Personal Weather Stations






























Interactive Weather Map
Tropical Storm Tracking
New forecast layout! Learn more

10-Day Weather Forecast

Advertisements
Track Severe Weather on mobile